Time;durP1;ratioP1;P1;durP2;ratioP2;P2;SDS_P1;SDS_P2;PMS_P1;PMS_P2;Temp;Humidity;BMP_temperature;BMP_pressure;BME280_temperature;BME280_humidity;BME280_pressure;Samples;Min_cycle;Max_cycle;Signal;HPM_P1;HPM_P2
2021/04/30 00:01:28;;;;;;;4.55;3.03;;;;;;;;;;4981094;28;20735;-82
2021/04/30 00:03:54;;;;;;;8.80;3.50;;;;;;;;;;4973434;28;20038;-83
2021/04/30 00:06:19;;;;;;;5.10;2.53;;;;;;;;;;4986426;28;20034;-83
2021/04/30 00:08:45;;;;;;;9.70;3.03;;;;;;;;;;4988367;28;20092;-81
2021/04/30 00:11:11;;;;;;;6.88;2.67;;;;;;;;;;4989547;28;20022;-82
2021/04/30 00:13:38;;;;;;;7.40;2.95;;;12.80;63.00;;;;;;4986984;28;20049;-82
2021/04/30 00:16:05;;;;;;;3.80;2.80;;;;;;;;;;4986182;28;20030;-82
2021/04/30 00:18:31;;;;;;;4.23;2.83;;;;;;;;;;4986252;28;20444;-82
2021/04/30 00:20:59;;;;;;;5.25;2.60;;;;;;;;;;4986977;28;20790;-82
2021/04/30 00:23:26;;;;;;;5.90;3.60;;;;;;;;;;4985251;28;20542;-82
2021/04/30 00:25:54;;;;;;;5.93;2.25;;;;;;;;;;4987219;28;20026;-83
2021/04/30 00:28:21;;;;;;;3.83;2.40;;;;;;;;;;4988353;28;20092;-82
2021/04/30 00:30:47;;;;;;;5.13;1.58;;;;;;;;;;5000789;28;20419;-82
2021/04/30 00:33:13;;;;;;;6.15;2.15;;;;;;;;;;4986209;28;20050;-83
2021/04/30 00:35:39;;;;;;;2.35;1.50;;;;;;;;;;4989239;28;20121;-82
2021/04/30 00:38:05;;;;;;;5.97;2.30;;;;;;;;;;4988376;28;20053;-82
2021/04/30 00:40:31;;;;;;;3.50;1.90;;;;;;;;;;4986110;28;20022;-82
2021/04/30 00:42:57;;;;;;;3.38;2.05;;;;;;;;;;4985345;28;20026;-83
2021/04/30 00:45:24;;;;;;;2.72;1.90;;;;;;;;;;4985759;28;20412;-82
2021/04/30 00:47:51;;;;;;;2.93;1.80;;;12.80;61.70;;;;;;4987532;28;20507;-82
2021/04/30 00:50:18;;;;;;;2.40;2.08;;;12.80;62.40;;;;;;4989734;28;20269;-83
2021/04/30 00:52:44;;;;;;;3.40;1.88;;;;;;;;;;4987477;28;20030;-82
2021/04/30 00:55:13;;;;;;;4.32;1.98;;;12.70;63.60;;;;;;4985909;28;20114;-82
2021/04/30 00:57:41;;;;;;;4.35;2.13;;;12.70;62.90;;;;;;4989069;28;20487;-83
2021/04/30 01:00:10;;;;;;;10.93;3.25;;;12.80;62.90;;;;;;4987743;28;20105;-82
2021/04/30 01:02:36;;;;;;;2.25;1.90;;;;;;;;;;4992609;28;20058;-82
2021/04/30 01:05:02;;;;;;;3.05;2.17;;;;;;;;;;4991269;28;20085;-83
2021/04/30 01:07:31;;;;;;;2.92;1.83;;;;;;;;;;4989418;28;20025;-81
2021/04/30 01:09:57;;;;;;;1.90;1.52;;;;;;;;;;4989358;28;20058;-83
2021/04/30 01:12:23;;;;;;;3.47;1.90;;;;;;;;;;4989629;28;20027;-82
2021/04/30 01:14:50;;;;;;;3.35;2.20;;;;;;;;;;4990877;28;20038;-81
2021/04/30 01:17:16;;;;;;;3.17;1.73;;;;;;;;;;4991186;28;20034;-82
2021/04/30 01:19:42;;;;;;;6.32;2.33;;;;;;;;;;4984642;28;20019;-82
2021/04/30 01:22:08;;;;;;;2.13;1.38;;;;;;;;;;5005793;28;20054;-82
2021/04/30 01:24:34;;;;;;;3.72;2.25;;;;;;;;;;4990796;28;20033;-82
2021/04/30 01:27:00;;;;;;;2.45;2.03;;;;;;;;;;4989809;28;20479;-82
2021/04/30 01:29:27;;;;;;;2.40;1.83;;;12.50;62.40;;;;;;4990291;28;20085;-82
2021/04/30 01:31:53;;;;;;;2.25;1.65;;;;;;;;;;4981322;28;20037;-82
2021/04/30 01:34:19;;;;;;;4.85;2.00;;;;;;;;;;4988763;28;20042;-81
2021/04/30 01:36:46;;;;;;;4.13;2.20;;;;;;;;;;4989201;28;20023;-82
2021/04/30 01:39:14;;;;;;;2.38;1.73;;;12.70;61.60;;;;;;4990315;28;20117;-82
2021/04/30 01:41:41;;;;;;;2.75;1.83;;;12.80;61.70;;;;;;4991564;28;20035;-82
2021/04/30 01:44:09;;;;;;;3.95;2.33;;;12.70;62.00;;;;;;4991109;28;20047;-81
2021/04/30 01:46:36;;;;;;;2.83;2.15;;;;;;;;;;4988809;28;20133;-82
2021/04/30 01:49:02;;;;;;;3.88;1.67;;;;;;;;;;4988460;28;20030;-82
2021/04/30 01:51:28;;;;;;;6.90;2.23;;;;;;;;;;4985641;28;20500;-81
2021/04/30 01:53:55;;;;;;;3.40;1.67;;;;;;;;;;4988994;28;20762;-82
2021/04/30 01:56:20;;;;;;;8.45;2.03;;;;;;;;;;4991054;28;20584;-82
2021/04/30 01:58:47;;;;;;;2.60;1.83;;;;;;;;;;4985207;28;20114;-81
2021/04/30 02:01:13;;;;;;;4.97;1.83;;;;;;;;;;4989560;28;20041;-82
2021/04/30 02:03:39;;;;;;;13.07;2.80;;;;;;;;;;4989453;28;20019;-82
2021/04/30 02:06:05;;;;;;;5.15;1.73;;;;;;;;;;4988693;28;20487;-82
2021/04/30 02:08:31;;;;;;;4.38;2.13;;;;;;;;;;4992019;28;20018;-81
2021/04/30 02:10:57;;;;;;;4.80;2.03;;;;;;;;;;4989528;28;20113;-82
2021/04/30 02:13:23;;;;;;;5.95;3.08;;;;;;;;;;4988270;28;20133;-82
2021/04/30 02:15:51;;;;;;;4.72;2.67;;;12.60;60.90;;;;;;4988122;28;20450;-82
2021/04/30 02:18:18;;;;;;;8.35;1.75;;;;;;;;;;4988064;28;20121;-82
2021/04/30 02:20:44;;;;;;;2.10;1.75;;;12.50;60.60;;;;;;4990389;28;20061;-81
2021/04/30 02:23:10;;;;;;;2.92;1.60;;;;;;;;;;4975799;28;20026;-81
2021/04/30 02:25:37;;;;;;;2.70;1.90;;;12.60;61.10;;;;;;4983556;28;20026;-82
2021/04/30 02:28:03;;;;;;;1.90;1.65;;;12.60;61.70;;;;;;4989557;28;20089;-82
2021/04/30 02:30:30;;;;;;;3.22;1.85;;;;;;;;;;4987822;28;20026;-82
2021/04/30 02:32:56;;;;;;;2.15;1.85;;;;;;;;;;4988773;28;20035;-82
2021/04/30 02:35:25;;;;;;;5.75;2.60;;;;;;;;;;4990718;28;20456;-82
2021/04/30 02:37:52;;;;;;;3.65;2.08;;;;;;;;;;4989616;28;20041;-81
2021/04/30 02:40:21;;;;;;;3.40;1.65;;;12.60;61.70;;;;;;4986381;28;20068;-82
2021/04/30 02:42:47;;;;;;;4.70;1.90;;;12.70;61.30;;;;;;4987479;28;20033;-83
2021/04/30 02:45:16;;;;;;;6.50;2.08;;;12.70;61.20;;;;;;4987256;28;20110;-82
2021/04/30 02:47:46;;;;;;;3.15;2.28;;;;;;;;;;4989698;28;20046;-82
2021/04/30 02:50:14;;;;;;;3.78;1.85;;;12.50;62.30;;;;;;4987468;28;20015;-83
2021/04/30 02:52:40;;;;;;;4.47;2.75;;;;;;;;;;4988772;28;20033;-82
2021/04/30 02:55:06;;;;;;;4.25;3.58;;;;;;;;;;4989061;28;20570;-82
2021/04/30 02:57:33;;;;;;;3.30;1.58;;;;;;;;;;4989372;28;20027;-83
2021/04/30 02:59:59;;;;;;;5.75;2.38;;;;;;;;;;4987845;28;20034;-81
2021/04/30 03:02:25;;;;;;;5.10;2.35;;;;;;;;;;4990799;28;20053;-81
2021/04/30 03:04:51;;;;;;;8.40;2.42;;;;;;;;;;4989122;28;20026;-81
2021/04/30 03:07:17;;;;;;;4.88;2.03;;;12.50;86.00;;;;;;4989844;28;20014;-82
2021/04/30 03:09:43;;;;;;;2.95;1.77;;;;;;;;;;4987302;28;20061;-82
2021/04/30 03:12:09;;;;;;;4.35;2.10;;;;;;;;;;4987374;28;20114;-81
2021/04/30 03:14:36;;;;;;;3.08;2.50;;;12.30;62.70;;;;;;4990000;28;20126;-81
2021/04/30 03:17:02;;;;;;;2.13;1.58;;;;;;;;;;4987756;28;20121;-82
2021/04/30 03:19:28;;;;;;;4.03;2.90;;;;;;;;;;4986454;28;20033;-83
2021/04/30 03:21:54;;;;;;;5.78;3.22;;;;;;;;;;4987399;28;20026;-81
2021/04/30 03:24:20;;;;;;;3.80;2.08;;;;;;;;;;4985492;28;20044;-82
2021/04/30 03:26:46;;;;;;;5.30;2.40;;;;;;;;;;4988801;28;20404;-83
2021/04/30 03:29:12;;;;;;;2.55;2.15;;;;;;;;;;4989889;28;20030;-82
2021/04/30 03:31:38;;;;;;;2.65;1.92;;;;;;;;;;4987093;28;20133;-83
2021/04/30 03:34:05;;;;;;;4.25;1.88;;;;;;;;;;4986508;28;20042;-82
2021/04/30 03:36:31;;;;;;;3.35;2.63;;;;;;;;;;4987055;28;20376;-83
2021/04/30 03:38:59;;;;;;;3.03;2.20;;;;;;;;;;5002737;28;20042;-82
2021/04/30 03:41:26;;;;;;;2.40;1.83;;;;;;;;;;4989979;28;20014;-82
2021/04/30 03:43:52;;;;;;;5.60;2.55;;;;;;;;;;4986202;28;20034;-81
2021/04/30 03:46:18;;;;;;;4.45;2.53;;;;;;;;;;4987678;28;20018;-81
2021/04/30 03:48:44;;;;;;;6.60;1.77;;;;;;;;;;4987690;28;20038;-81
2021/04/30 03:51:10;;;;;;;2.65;1.77;;;;;;;;;;4987724;28;20030;-82
2021/04/30 03:53:36;;;;;;;12.32;2.47;;;;;;;;;;4989853;28;20503;-82
2021/04/30 03:56:02;;;;;;;5.57;2.53;;;;;;;;;;4986946;28;20026;-83
2021/04/30 03:58:28;;;;;;;6.53;1.98;;;;;;;;;;4986287;28;20030;-83
2021/04/30 04:00:54;;;;;;;2.15;1.48;;;;;;;;;;4986169;28;20088;-82
2021/04/30 04:03:20;;;;;;;3.85;1.23;;;;;;;;;;4975128;28;20034;-83
2021/04/30 04:05:46;;;;;;;2.53;2.22;;;;;;;;;;4988841;28;20023;-83
2021/04/30 04:08:12;;;;;;;1.58;1.48;;;;;;;;;;4986478;28;20380;-83
2021/04/30 04:10:39;;;;;;;5.00;2.05;;;;;;;;;;4986481;28;20023;-82
2021/04/30 04:13:22;;;;;;;3.03;2.17;;;12.60;64.40;;;;;;5001201;28;20049;-82
2021/04/30 04:15:49;;;;;;;9.52;2.22;;;;;;;;;;4988907;28;20034;-83
2021/04/30 04:18:15;;;;;;;4.22;2.28;;;;;;;;;;4986141;28;20146;-83
2021/04/30 04:20:41;;;;;;;3.58;2.08;;;;;;;;;;4988599;28;20030;-82
2021/04/30 04:23:08;;;;;;;3.35;2.10;;;;;;;;;;4990294;28;20049;-82
2021/04/30 04:25:34;;;;;;;3.30;1.95;;;;;;;;;;4986076;28;20035;-82
2021/04/30 04:28:00;;;;;;;2.38;1.88;;;;;;;;;;4986029;28;20018;-83
2021/04/30 04:30:26;;;;;;;7.57;2.38;;;;;;;;;;4988876;28;20589;-82
2021/04/30 04:32:53;;;;;;;2.05;1.55;;;12.60;65.00;;;;;;5006572;28;20054;-82
2021/04/30 04:35:19;;;;;;;4.13;3.33;;;;;;;;;;4994324;28;20034;-82
2021/04/30 04:37:45;;;;;;;3.17;1.73;;;;;;;;;;4989778;28;20081;-84
2021/04/30 04:40:12;;;;;;;2.55;2.15;;;12.60;64.90;;;;;;4989957;28;20030;-83
2021/04/30 04:42:39;;;;;;;2.75;2.40;;;;;;;;;;4990039;28;20030;-83
2021/04/30 04:45:06;;;;;;;;;;;12.30;65.80;;;;;;4990814;28;20036;-83
2021/04/30 04:47:32;;;;;;;2.90;2.10;;;;;;;;;;5004735;28;19918;-83
2021/04/30 04:49:58;;;;;;;4.25;2.67;;;;;;;;;;4985754;28;20033;-84
2021/04/30 04:52:24;;;;;;;3.17;1.70;;;;;;;;;;4991298;28;20088;-83
2021/04/30 04:54:50;;;;;;;3.67;1.70;;;;;;;;;;4990082;28;20068;-83
2021/04/30 04:57:16;;;;;;;1.92;1.63;;;;;;;;;;4990013;28;20058;-83
2021/04/30 04:59:42;;;;;;;3.15;1.98;;;;;;;;;;4991948;28;20609;-83
2021/04/30 05:02:07;;;;;;;2.35;1.63;;;;;;;;;;4990839;28;20014;-83
2021/04/30 05:04:34;;;;;;;7.72;2.80;;;;;;;;;;4990509;28;20028;-83
2021/04/30 05:06:59;;;;;;;7.43;2.03;;;;;;;;;;4989649;28;20061;-83
2021/04/30 05:09:27;;;;;;;2.80;1.98;;;;;;;;;;4990097;28;20512;-84
2021/04/30 05:11:53;;;;;;;3.05;2.20;;;;;;;;;;4991300;28;20044;-83
2021/04/30 05:14:19;;;;;;;3.03;2.05;;;;;;;;;;4987337;28;20026;-82
2021/04/30 05:16:45;;;;;;;4.18;2.40;;;;;;;;;;4989273;28;20598;-84
2021/04/30 05:19:11;;;;;;;2.85;2.08;;;;;;;;;;4992073;28;20025;-83
2021/04/30 05:21:40;;;;;;;6.72;2.42;;;;;;;;;;4990670;28;20453;-83
2021/04/30 05:24:06;;;;;;;4.22;2.30;;;;;;;;;;4971565;28;20040;-82
2021/04/30 05:26:32;;;;;;;2.15;1.55;;;;;;;;;;4991603;28;20545;-83
2021/04/30 05:28:58;;;;;;;2.03;1.10;;;;;;;;;;4986392;28;20034;-83
2021/04/30 05:31:24;;;;;;;2.30;1.48;;;;;;;;;;4990027;28;20031;-82
2021/04/30 05:33:50;;;;;;;0.80;0.80;;;;;;;;;;4990314;28;20070;-82
2021/04/30 05:36:17;;;;;;;1.02;0.90;;;;;;;;;;4989058;28;20135;-81
2021/04/30 05:38:43;;;;;;;2.45;1.30;;;;;;;;;;4990751;28;20030;-82
2021/04/30 05:41:09;;;;;;;3.55;1.38;;;;;;;;;;4990059;28;20403;-82
2021/04/30 05:43:35;;;;;;;3.40;1.27;;;;;;;;;;4988680;28;20025;-82
2021/04/30 05:46:01;;;;;;;4.32;2.90;;;;;;;;;;4991015;28;20102;-92
2021/04/30 05:48:30;;;;;;;3.88;2.35;;;;;;;;;;4988836;28;20031;-93
2021/04/30 05:50:56;;;;;;;3.97;2.70;;;;;;;;;;4974817;28;20037;-85
2021/04/30 05:53:22;;;;;;;5.25;2.10;;;;;;;;;;4992044;28;20034;-84
2021/04/30 05:55:49;;;;;;;4.28;2.70;;;;;;;;;;4986536;28;20052;-86
2021/04/30 05:58:15;;;;;;;5.85;1.88;;;;;;;;;;4991072;28;20033;-84
2021/04/30 06:00:41;;;;;;;4.10;2.00;;;;;;;;;;4989726;28;20492;-85
2021/04/30 06:03:07;;;;;;;1.92;1.48;;;;;;;;;;4988466;28;20073;-84
2021/04/30 06:05:33;;;;;;;3.88;2.55;;;;;;;;;;5006523;28;20074;-84
2021/04/30 06:07:59;;;;;;;4.28;2.35;;;;;;;;;;4987785;28;20073;-84
2021/04/30 06:10:25;;;;;;;3.17;2.08;;;;;;;;;;4988981;28;20165;-84
2021/04/30 06:12:51;;;;;;;3.72;2.20;;;;;;;;;;4988986;28;20117;-85
2021/04/30 06:15:17;;;;;;;3.40;1.90;;;;;;;;;;4988191;28;20035;-84
2021/04/30 06:17:43;;;;;;;2.60;1.85;;;;;;;;;;4990630;28;20032;-84
2021/04/30 06:20:09;;;;;;;5.00;2.80;;;;;;;;;;4989012;28;20023;-83
2021/04/30 06:22:36;;;;;;;4.63;2.00;;;;;;;;;;4983689;28;20483;-85
2021/04/30 06:25:02;;;;;;;5.18;2.38;;;;;;;;;;4982921;28;20117;-83
2021/04/30 06:27:28;;;;;;;2.75;1.40;;;;;;;;;;4990253;28;20495;-86
2021/04/30 06:29:54;;;;;;;5.30;1.60;;;;;;;;;;4988985;28;20026;-84
2021/04/30 06:32:20;;;;;;;6.38;2.88;;;;;;;;;;4989878;28;20526;-84
2021/04/30 06:34:46;;;;;;;1.73;1.30;;;;;;;;;;4987443;28;20054;-84
2021/04/30 06:37:12;;;;;;;2.15;1.08;;;;;;;;;;4987624;28;20037;-84
2021/04/30 06:39:38;;;;;;;4.10;1.35;;;;;;;;;;5004461;28;20034;-92
2021/04/30 06:42:05;;;;;;;0.88;0.60;;;12.70;64.70;;;;;;4981185;28;20026;-83
2021/04/30 06:44:32;;;;;;;0.63;0.50;;;12.70;64.00;;;;;;4986152;28;20038;-84
2021/04/30 06:47:00;;;;;;;4.22;0.80;;;;;;;;;;4989041;28;20381;-92
2021/04/30 06:49:26;;;;;;;1.35;0.88;;;;;;;;;;4991330;28;20038;-91
2021/04/30 06:51:58;;;;;;;0.80;0.80;;;;;;;;;;4993284;28;20027;-95
2021/04/30 06:54:24;;;;;;;0.60;0.60;;;;;;;;;;4990539;28;20727;-90
2021/04/30 06:56:50;;;;;;;1.67;0.70;;;;;;;;;;4986967;28;20495;-88
2021/04/30 06:59:16;;;;;;;1.30;0.80;;;;;;;;;;5006124;28;20491;-90
2021/04/30 07:01:42;;;;;;;1.20;1.08;;;;;;;;;;4997454;28;20022;-92
2021/04/30 07:04:09;;;;;;;0.75;0.68;;;;;;;;;;4991814;28;20483;-93
2021/04/30 07:06:35;;;;;;;0.52;0.52;;;;;;;;;;4992971;28;20019;-92
2021/04/30 07:09:02;;;;;;;0.50;0.47;;;;;;;;;;4993365;28;20026;-90
2021/04/30 07:11:28;;;;;;;2.40;0.90;;;;;;;;;;4992771;28;20101;-91
2021/04/30 07:13:54;;;;;;;0.88;0.77;;;;;;;;;;4992188;28;20098;-91
2021/04/30 07:16:20;;;;;;;0.63;0.63;;;;;;;;;;4989730;28;20034;-84
2021/04/30 07:18:46;;;;;;;0.50;0.50;;;;;;;;;;4990100;28;20092;-89
2021/04/30 07:21:12;;;;;;;2.53;1.70;;;;;;;;;;4990800;28;20092;-88
2021/04/30 07:23:39;;;;;;;4.28;2.80;;;;;;;;;;4991846;28;20030;-87
2021/04/30 07:26:07;;;;;;;4.65;2.35;;;;;;;;;;4990970;28;21218;-93
2021/04/30 07:28:33;;;;;;;4.15;2.58;;;;;;;;;;5006608;28;20488;-92
2021/04/30 07:31:02;;;;;;;7.13;3.58;;;;;;;;;;4982060;28;20038;-87
2021/04/30 07:33:28;;;;;;;8.15;3.28;;;;;;;;;;4990532;28;20089;-90
2021/04/30 07:35:54;;;;;;;5.70;2.50;;;;;;;;;;4991367;28;20030;-89
2021/04/30 07:38:20;;;;;;;4.88;2.75;;;;;;;;;;4993840;28;20045;-89
2021/04/30 07:40:46;;;;;;;7.22;2.90;;;;;;;;;;4989829;28;20034;-88
2021/04/30 07:43:12;;;;;;;7.82;3.70;;;;;;;;;;4991271;28;20034;-89
2021/04/30 07:45:40;;;;;;;9.05;3.75;;;11.70;61.70;;;;;;4984140;28;20030;-91
2021/04/30 07:48:05;;;;;;;;;;;11.50;62.10;;;;;;4991396;28;20054;-85
2021/04/30 07:50:32;;;;;;;5.28;3.40;;;;;;;;;;5003004;28;19960;-84
2021/04/30 07:52:58;;;;;;;10.70;3.25;;;;;;;;;;4985957;28;20116;-86
2021/04/30 07:55:24;;;;;;;6.93;3.28;;;;;;;;;;4989319;28;20403;-88
2021/04/30 07:57:50;;;;;;;6.25;3.55;;;;;;;;;;4982042;28;20240;-84
2021/04/30 08:00:16;;;;;;;6.13;3.13;;;;;;;;;;4987943;28;20054;-84
2021/04/30 08:02:42;;;;;;;4.38;3.10;;;;;;;;;;4973652;28;20026;-86
2021/04/30 08:05:10;;;;;;;5.13;3.17;;;11.80;63.10;;;;;;4984203;28;20454;-84
2021/04/30 08:07:37;;;;;;;5.28;2.47;;;;;;;;;;4981646;28;20026;-85
2021/04/30 08:10:03;;;;;;;4.17;2.57;;;;;;;;;;4979481;28;20034;-85
2021/04/30 08:12:29;;;;;;;5.45;3.13;;;;;;;;;;4976467;28;20479;-83
2021/04/30 08:14:55;;;;;;;5.90;2.42;;;;;;;;;;4983787;28;20125;-83
2021/04/30 08:17:22;;;;;;;6.60;3.13;;;;;;;;;;4987419;28;20035;-83
2021/04/30 08:19:47;;;;;;;5.10;3.35;;;;;;;;;;4984566;28;20026;-82
2021/04/30 08:22:14;;;;;;;6.90;2.20;;;;;;;;;;4985087;28;20046;-83
2021/04/30 08:24:40;;;;;;;4.63;2.72;;;;;;;;;;4984323;28;20056;-83
2021/04/30 08:27:06;;;;;;;4.20;2.63;;;;;;;;;;4990152;28;20472;-87
2021/04/30 08:29:32;;;;;;;6.72;2.78;;;;;;;;;;4988545;28;20027;-88
2021/04/30 08:31:58;;;;;;;4.78;2.92;;;;;;;;;;4991458;28;20049;-88
2021/04/30 08:34:24;;;;;;;5.55;3.92;;;;;;;;;;4990932;28;20046;-90
2021/04/30 08:36:50;;;;;;;4.65;2.85;;;;;;;;;;4983175;28;20038;-90
2021/04/30 08:39:16;;;;;;;4.35;2.45;;;;;;;;;;4990429;28;20023;-90
2021/04/30 08:41:42;;;;;;;5.93;3.05;;;11.80;62.10;;;;;;4988035;28;20415;-84
2021/04/30 08:44:09;;;;;;;5.95;3.45;;;;;;;;;;4985744;28;20045;-84
2021/04/30 08:46:35;;;;;;;3.63;2.97;;;;;;;;;;4986576;28;20031;-84
2021/04/30 08:49:03;;;;;;;4.88;2.80;;;;;;;;;;4984373;28;20523;-84
2021/04/30 08:51:29;;;;;;;4.65;2.42;;;;;;;;;;4986536;28;20030;-83
2021/04/30 08:53:55;;;;;;;5.13;2.33;;;;;;;;;;4985418;28;20045;-83
2021/04/30 08:56:21;;;;;;;4.90;2.78;;;;;;;;;;4988130;28;20049;-86
2021/04/30 08:58:48;;;;;;;6.70;2.95;;;;;;;;;;4988690;28;20398;-87
2021/04/30 09:01:14;;;;;;;5.95;3.08;;;;;;;;;;4984183;28;20447;-86
2021/04/30 09:03:40;;;;;;;8.73;3.33;;;;;;;;;;4987680;28;20518;-88
2021/04/30 09:06:06;;;;;;;4.60;3.25;;;;;;;;;;4986214;28;20023;-84
2021/04/30 09:08:49;;;;;;;4.13;2.90;;;11.60;59.90;;;;;;4986606;28;20485;-83
2021/04/30 09:11:38;;;;;;;7.78;3.38;;;11.70;59.30;;;;;;4987607;28;20034;-83
2021/04/30 09:14:24;;;;;;;5.50;3.45;;;11.60;58.60;;;;;;4985661;28;20065;-84
2021/04/30 09:17:02;;;;;;;6.05;2.90;;;;;;;;;;4986171;28;20042;-82
2021/04/30 09:19:32;;;;;;;6.10;2.90;;;11.40;59.40;;;;;;4986516;28;20023;-82
2021/04/30 09:22:09;;;;;;;5.22;3.03;;;11.50;60.00;;;;;;5006808;28;20030;-84
2021/04/30 09:24:36;;;;;;;5.57;3.07;;;11.80;59.20;;;;;;4988787;28;20023;-84
2021/04/30 09:27:02;;;;;;;8.57;3.13;;;;;;;;;;4988280;28;20109;-84
2021/04/30 09:29:32;;;;;;;4.22;3.08;;;;;;;;;;4990201;28;20856;-85
2021/04/30 09:31:58;;;;;;;8.30;3.15;;;;;;;;;;4988007;28;20026;-84
2021/04/30 09:34:35;;;;;;;4.40;3.13;;;;;;;;;;4986742;28;20054;-82
2021/04/30 09:37:10;;;;;;;7.22;3.17;;;12.20;58.60;;;;;;4986587;28;20030;-90
2021/04/30 09:39:56;;;;;;;6.97;2.53;;;;;;;;;;4982926;28;20057;-87
2021/04/30 09:42:29;;;;;;;7.22;4.13;;;;;;;;;;4988793;28;20034;-83
2021/04/30 09:45:00;;;;;;;4.78;3.63;;;12.20;58.20;;;;;;4987769;28;20495;-84
2021/04/30 09:47:28;;;;;;;5.65;3.13;;;12.30;58.50;;;;;;4989544;28;20034;-84
2021/04/30 09:49:54;;;;;;;4.18;2.72;;;;;;;;;;4988601;28;20026;-86
2021/04/30 09:52:21;;;;;;;8.57;3.55;;;12.80;57.10;;;;;;4988643;28;20034;-86
2021/04/30 09:54:48;;;;;;;3.00;2.50;;;;;;;;;;4989138;28;20117;-90
2021/04/30 09:57:15;;;;;;;7.13;3.25;;;;;;;;;;4991654;28;20069;-88
2021/04/30 09:59:44;;;;;;;5.68;2.30;;;12.60;56.90;;;;;;4992032;28;20225;-90
2021/04/30 10:02:18;;;;;;;4.38;2.50;;;12.60;54.30;;;;;;4992113;28;20109;-90
2021/04/30 10:04:46;;;;;;;4.63;2.17;;;;;;;;;;4988932;28;20121;-85
2021/04/30 10:07:12;;;;;;;;;;;12.30;56.40;;;;;;4957391;28;20042;-89
2021/04/30 10:09:40;;;;;;;4.30;2.47;;;12.20;57.00;;;;;;4980810;28;147266;-87
2021/04/30 10:12:23;;;;;;;4.38;3.20;;;12.20;56.00;;;;;;5000866;28;20507;-85
2021/04/30 10:14:50;;;;;;;5.80;3.95;;;12.00;56.60;;;;;;5000429;28;20050;-84
2021/04/30 10:17:16;;;;;;;5.82;3.25;;;;;;;;;;4992479;28;20100;-83
2021/04/30 10:19:44;;;;;;;5.35;2.75;;;11.90;57.70;;;;;;4997263;28;20034;-83
2021/04/30 10:22:13;;;;;;;;;;;12.00;57.80;;;;;;4996393;28;20506;-83
2021/04/30 10:24:39;;;;;;;5.18;2.47;;;;;;;;;;4999495;28;19913;-83
2021/04/30 10:27:06;;;;;;;7.03;4.35;;;;;;;;;;4998466;28;20062;-84
2021/04/30 10:29:35;;;;;;;5.85;3.45;;;11.90;56.60;;;;;;4995326;28;20030;-82
2021/04/30 10:32:02;;;;;;;8.38;3.35;;;;;;;;;;4999272;28;20516;-84
2021/04/30 10:34:31;;;;;;;7.18;2.95;;;12.00;57.10;;;;;;5001226;28;20077;-81
2021/04/30 10:36:59;;;;;;;6.35;3.90;;;;;;;;;;4996694;28;20051;-81
2021/04/30 10:39:28;;;;;;;7.43;3.80;;;11.90;59.10;;;;;;5021797;28;20044;-83
2021/04/30 10:41:54;;;;;;;6.72;3.85;;;;;;;;;;5032792;28;20048;-92
2021/04/30 10:44:32;;;;;;;8.53;3.30;;;11.90;62.70;;;;;;5031816;28;20026;-88
2021/04/30 10:47:07;;;;;;;5.78;3.53;;;;;;;;;;5029909;28;20116;-89
2021/04/30 10:49:34;;;;;;;5.85;3.08;;;;;;;;;;5016969;28;20053;-89
2021/04/30 10:52:03;;;;;;;6.75;4.05;;;;;;;;;;5027537;28;20733;-86
2021/04/30 10:54:30;;;;;;;19.40;4.25;;;;;;;;;;5023604;28;22916;-83
2021/04/30 10:57:03;;;;;;;6.18;3.88;;;11.90;58.00;;;;;;5027714;28;20021;-89
2021/04/30 10:59:41;;;;;;;7.95;3.30;;;;;;;;;;5030120;28;20033;-90
2021/04/30 11:02:12;;;;;;;8.75;3.40;;;;;;;;;;5042260;28;20022;-92
2021/04/30 11:04:38;;;;;;;6.82;4.70;;;;;;;;;;5026422;28;20033;-90
2021/04/30 11:07:08;;;;;;;6.47;3.65;;;;;;;;;;5031561;28;20080;-92
2021/04/30 11:09:38;;;;;;;7.90;3.95;;;12.10;59.30;;;;;;5031814;28;20025;-92
2021/04/30 11:12:21;;;;;;;7.03;3.42;;;12.20;58.40;;;;;;5025021;28;20030;-86
2021/04/30 11:14:57;;;;;;;8.13;4.90;;;12.30;61.30;;;;;;5021955;28;20169;-89
2021/04/30 11:18:01;;;;;;;7.88;3.63;;;12.30;57.20;;;;;;5020886;28;20049;-84
2021/04/30 11:20:30;;;;;;;8.07;3.53;;;12.20;56.40;;;;;;5022282;28;20084;-87
2021/04/30 11:23:12;;;;;;;4.72;2.90;;;;;;;;;;5028302;28;20029;-90
2021/04/30 11:26:00;;;;;;;8.10;2.88;;;;;;;;;;5026372;28;20033;-89
2021/04/30 11:28:35;;;;;;;5.75;3.45;;;;;;;;;;5023679;28;20040;-92
2021/04/30 11:31:05;;;;;;;4.68;3.67;;;;;;;;;;5042065;28;20036;-85
2021/04/30 11:33:32;;;;;;;6.68;3.42;;;;;;;;;;5025978;28;20534;-84
2021/04/30 11:35:59;;;;;;;4.05;2.67;;;;;;;;;;5024196;28;20025;-85
2021/04/30 11:38:38;;;;;;;6.43;3.28;;;;;;;;;;5023163;28;20033;-90
2021/04/30 11:41:08;;;;;;;8.68;3.47;;;12.80;57.60;;;;;;5023396;28;20025;-84
2021/04/30 11:43:34;;;;;;;5.55;2.92;;;12.70;56.00;;;;;;5020175;28;20025;-83
2021/04/30 11:46:01;;;;;;;4.32;2.85;;;;;;;;;;5021000;28;20516;-85
2021/04/30 11:48:28;;;;;;;5.95;3.70;;;;;;;;;;5029098;28;20498;-82
2021/04/30 11:51:00;;;;;;;4.90;3.27;;;;;;;;;;5024452;28;20460;-83
2021/04/30 11:53:26;;;;;;;5.00;2.92;;;;;;;;;;5026040;28;20315;-82
2021/04/30 11:55:53;;;;;;;4.38;3.10;;;;;;;;;;5022247;28;20033;-81
2021/04/30 11:58:19;;;;;;;4.40;3.50;;;;;;;;;;5023097;28;20017;-82
2021/04/30 12:00:52;;;;;;;8.25;2.63;;;;;;;;;;5023950;28;20045;-83
2021/04/30 12:03:18;;;;;;;5.88;3.33;;;;;;;;;;5024145;28;20859;-81
2021/04/30 12:05:44;;;;;;;6.35;3.42;;;;;;;;;;5024773;28;20022;-82
2021/04/30 12:08:10;;;;;;;4.20;2.50;;;;;;;;;;5026286;28;20025;-84
2021/04/30 12:10:38;;;;;;;3.80;3.15;;;;;;;;;;5023717;28;20021;-83
2021/04/30 12:13:07;;;;;;;6.22;3.25;;;;;;;;;;5028863;28;20107;-86
2021/04/30 12:15:41;;;;;;;6.95;3.72;;;;;;;;;;5020957;28;20084;-82
2021/04/30 12:18:07;;;;;;;7.63;3.50;;;;;;;;;;5026631;28;20083;-83
2021/04/30 12:20:35;;;;;;;5.63;3.63;;;;;;;;;;5024380;28;20041;-82
2021/04/30 12:23:03;;;;;;;4.60;2.72;;;;;;;;;;5027126;28;20124;-86
2021/04/30 12:25:40;;;;;;;8.90;3.38;;;;;;;;;;5025196;28;20041;-89
2021/04/30 12:28:15;;;;;;;;;;;13.00;54.60;;;;;;5026494;28;20029;-84
2021/04/30 12:30:41;;;;;;;4.45;3.53;;;;;;;;;;5023061;28;19919;-83
2021/04/30 12:33:07;;;;;;;4.05;2.95;;;;;;;;;;5027128;28;20049;-82
2021/04/30 12:35:34;;;;;;;5.72;3.53;;;;;;;;;;5026639;28;20041;-81
2021/04/30 12:38:00;;;;;;;3.83;2.60;;;;;;;;;;5013568;28;20026;-82
2021/04/30 12:40:28;;;;;;;5.10;3.25;;;;;;;;;;5034116;28;20510;-82
2021/04/30 12:42:55;;;;;;;5.20;2.90;;;;;;;;;;5024412;28;20476;-83
2021/04/30 12:45:21;;;;;;;5.77;3.43;;;;;;;;;;5010287;28;20383;-83
2021/04/30 12:47:47;;;;;;;3.35;2.30;;;;;;;;;;5025303;28;20037;-84
2021/04/30 12:50:14;;;;;;;5.10;2.83;;;;;;;;;;5013502;28;20026;-82
2021/04/30 12:52:41;;;;;;;6.80;3.63;;;;;;;;;;5016283;28;20100;-83
2021/04/30 12:55:22;;;;;;;6.75;3.20;;;;;;;;;;5016400;28;20045;-84
2021/04/30 12:58:18;;;;;;;3.45;2.65;;;13.40;53.90;;;;;;5019211;28;20057;-82
2021/04/30 13:00:53;;;;;;;4.82;2.67;;;;;;;;;;5009866;28;20494;-83
2021/04/30 13:03:19;;;;;;;7.00;2.53;;;;;;;;;;5014476;28;20100;-83
2021/04/30 13:05:45;;;;;;;3.20;2.60;;;;;;;;;;5014234;28;20395;-83
2021/04/30 13:08:11;;;;;;;2.95;1.60;;;;;;;;;;5016799;28;20030;-84
2021/04/30 13:10:37;;;;;;;5.45;2.90;;;;;;;;;;5038738;28;20066;-83
2021/04/30 13:13:04;;;;;;;3.70;2.88;;;;;;;;;;5024181;28;20057;-83
2021/04/30 13:15:31;;;;;;;4.93;3.15;;;;;;;;;;5016143;28;20079;-82
2021/04/30 13:17:58;;;;;;;12.43;4.03;;;;;;;;;;5013301;28;20061;-84
2021/04/30 13:20:27;;;;;;;5.05;2.38;;;;;;;;;;5031157;28;20037;-84
2021/04/30 13:22:59;;;;;;;8.38;3.00;;;;;;;;;;5026500;28;20037;-84
2021/04/30 13:25:32;;;;;;;6.90;2.80;;;;;;;;;;5020817;28;20101;-84
2021/04/30 13:27:58;;;;;;;4.78;3.03;;;;;;;;;;5026479;28;20087;-85
2021/04/30 13:30:37;;;;;;;4.53;2.55;;;;;;;;;;5013738;28;20065;-84
2021/04/30 13:33:14;;;;;;;3.67;2.10;;;;;;;;;;5026688;28;20406;-84
2021/04/30 13:35:41;;;;;;;3.55;2.55;;;;;;;;;;5017176;28;20034;-85
2021/04/30 13:38:07;;;;;;;3.47;2.53;;;;;;;;;;5025437;28;20051;-81
2021/04/30 13:40:33;;;;;;;4.47;3.15;;;;;;;;;;5025268;28;20032;-84
2021/04/30 13:43:03;;;;;;;4.50;2.70;;;;;;;;;;5028056;28;20048;-95
2021/04/30 13:45:30;;;;;;;4.45;2.60;;;;;;;;;;5030315;28;20561;-86
2021/04/30 13:47:56;;;;;;;3.72;2.45;;;;;;;;;;5026288;28;20108;-86
2021/04/30 13:50:28;;;;;;;3.47;2.50;;;;;;;;;;5017246;28;20045;-86
2021/04/30 13:52:56;;;;;;;3.83;2.22;;;;;;;;;;5016283;28;20025;-85
2021/04/30 13:55:22;;;;;;;3.40;2.97;;;;;;;;;;5022217;28;20168;-85
2021/04/30 13:57:48;;;;;;;4.35;2.88;;;;;;;;;;5022945;28;20029;-85
2021/04/30 14:00:15;;;;;;;3.60;2.58;;;;;;;;;;5026413;28;20034;-85
2021/04/30 14:02:41;;;;;;;2.90;2.40;;;;;;;;;;5028253;28;20029;-85
2021/04/30 14:05:08;;;;;;;4.18;2.00;;;;;;;;;;5025893;28;20033;-86
2021/04/30 14:07:34;;;;;;;6.60;2.38;;;;;;;;;;5024970;28;20060;-85
2021/04/30 14:10:01;;;;;;;2.97;2.00;;;;;;;;;;5024130;28;20033;-85
2021/04/30 14:12:27;;;;;;;6.05;2.33;;;;;;;;;;5012651;28;20435;-85
2021/04/30 14:14:54;;;;;;;3.63;2.30;;;;;;;;;;5026808;28;20083;-86
2021/04/30 14:17:20;;;;;;;3.53;2.45;;;;;;;;;;5024772;28;20033;-85
2021/04/30 14:19:46;;;;;;;5.93;1.90;;;;;;;;;;5017826;28;20026;-86
2021/04/30 14:22:12;;;;;;;4.95;2.72;;;;;;;;;;5019123;28;20107;-86
2021/04/30 14:24:38;;;;;;;3.80;2.55;;;;;;;;;;5026052;28;20487;-86